sensor_id;sensor_type;location;lat;lon;timestamp;P1;durP1;ratioP1;P2;durP2;ratioP2
61531;SDS011;47397;48.194;11.632;2022-11-11T00:00:24;4.65;;;3.50;;
61531;SDS011;47397;48.194;11.632;2022-11-11T00:01:24;4.75;;;3.97;;
61531;SDS011;47397;48.194;11.632;2022-11-11T00:02:26;4.53;;;3.83;;
61531;SDS011;47397;48.194;11.632;2022-11-11T00:03:26;4.78;;;3.78;;
61531;SDS011;47397;48.194;11.632;2022-11-11T00:04:27;5.13;;;3.80;;
61531;SDS011;47397;48.194;11.632;2022-11-11T00:05:27;5.03;;;4.05;;
61531;SDS011;47397;48.194;11.632;2022-11-11T00:06:28;5.18;;;3.72;;
61531;SDS011;47397;48.194;11.632;2022-11-11T00:07:28;3.80;;;3.40;;
61531;SDS011;47397;48.194;11.632;2022-11-11T00:08:29;4.50;;;4.00;;
61531;SDS011;47397;48.194;11.632;2022-11-11T00:09:30;5.13;;;3.78;;
61531;SDS011;47397;48.194;11.632;2022-11-11T00:10:31;4.38;;;3.50;;
61531;SDS011;47397;48.194;11.632;2022-11-11T00:11:31;5.32;;;3.55;;
61531;SDS011;47397;48.194;11.632;2022-11-11T00:12:32;4.07;;;3.60;;
61531;SDS011;47397;48.194;11.632;2022-11-11T00:13:32;4.55;;;3.70;;
61531;SDS011;47397;48.194;11.632;2022-11-11T00:14:33;4.13;;;3.50;;
61531;SDS011;47397;48.194;11.632;2022-11-11T00:15:35;5.15;;;3.53;;
61531;SDS011;47397;48.194;11.632;2022-11-11T00:16:36;4.88;;;3.95;;
61531;SDS011;47397;48.194;11.632;2022-11-11T00:17:38;4.78;;;3.65;;
61531;SDS011;47397;48.194;11.632;2022-11-11T00:18:38;4.60;;;3.80;;
61531;SDS011;47397;48.194;11.632;2022-11-11T00:19:40;4.95;;;3.42;;
61531;SDS011;47397;48.194;11.632;2022-11-11T00:20:40;4.28;;;3.47;;
61531;SDS011;47397;48.194;11.632;2022-11-11T00:21:40;4.32;;;3.58;;
61531;SDS011;47397;48.194;11.632;2022-11-11T00:22:41;3.97;;;3.55;;
61531;SDS011;47397;48.194;11.632;2022-11-11T00:23:41;7.10;;;4.10;;
61531;SDS011;47397;48.194;11.632;2022-11-11T00:24:42;4.25;;;3.78;;
61531;SDS011;47397;48.194;11.632;2022-11-11T00:25:42;4.93;;;3.55;;
61531;SDS011;47397;48.194;11.632;2022-11-11T00:26:43;5.53;;;3.67;;
61531;SDS011;47397;48.194;11.632;2022-11-11T00:27:43;4.10;;;3.45;;
61531;SDS011;47397;48.194;11.632;2022-11-11T00:28:43;4.03;;;3.40;;
61531;SDS011;47397;48.194;11.632;2022-11-11T00:29:45;3.95;;;3.33;;
61531;SDS011;47397;48.194;11.632;2022-11-11T00:30:46;4.68;;;3.67;;
61531;SDS011;47397;48.194;11.632;2022-11-11T00:31:46;4.40;;;3.55;;
61531;SDS011;47397;48.194;11.632;2022-11-11T00:32:48;3.97;;;3.30;;
61531;SDS011;47397;48.194;11.632;2022-11-11T00:33:48;4.63;;;3.40;;
61531;SDS011;47397;48.194;11.632;2022-11-11T00:34:52;3.67;;;3.15;;
61531;SDS011;47397;48.194;11.632;2022-11-11T00:35:54;6.68;;;3.58;;
61531;SDS011;47397;48.194;11.632;2022-11-11T00:36:54;4.10;;;3.50;;
61531;SDS011;47397;48.194;11.632;2022-11-11T00:37:55;4.88;;;3.53;;
61531;SDS011;47397;48.194;11.632;2022-11-11T00:39:06;5.70;;;3.60;;
61531;SDS011;47397;48.194;11.632;2022-11-11T00:40:07;6.05;;;3.47;;
61531;SDS011;47397;48.194;11.632;2022-11-11T00:41:08;4.45;;;3.45;;
61531;SDS011;47397;48.194;11.632;2022-11-11T00:42:09;4.22;;;3.35;;
61531;SDS011;47397;48.194;11.632;2022-11-11T00:43:09;5.20;;;3.38;;
61531;SDS011;47397;48.194;11.632;2022-11-11T00:44:10;4.47;;;3.45;;
61531;SDS011;47397;48.194;11.632;2022-11-11T00:45:10;3.95;;;2.90;;
61531;SDS011;47397;48.194;11.632;2022-11-11T00:46:11;5.15;;;3.55;;
61531;SDS011;47397;48.194;11.632;2022-11-11T00:47:12;6.25;;;3.55;;
61531;SDS011;47397;48.194;11.632;2022-11-11T00:48:14;4.47;;;3.28;;
61531;SDS011;47397;48.194;11.632;2022-11-11T00:49:14;4.38;;;3.22;;
61531;SDS011;47397;48.194;11.632;2022-11-11T00:50:16;5.82;;;3.35;;
61531;SDS011;47397;48.194;11.632;2022-11-11T00:51:17;4.03;;;3.40;;
61531;SDS011;47397;48.194;11.632;2022-11-11T00:52:18;3.95;;;3.33;;
61531;SDS011;47397;48.194;11.632;2022-11-11T00:53:19;3.90;;;3.47;;
61531;SDS011;47397;48.194;11.632;2022-11-11T00:54:20;4.80;;;3.00;;
61531;SDS011;47397;48.194;11.632;2022-11-11T00:55:21;4.22;;;3.40;;
61531;SDS011;47397;48.194;11.632;2022-11-11T00:56:22;4.40;;;3.30;;
61531;SDS011;47397;48.194;11.632;2022-11-11T00:57:23;4.28;;;3.08;;
61531;SDS011;47397;48.194;11.632;2022-11-11T00:58:23;6.72;;;3.20;;
61531;SDS011;47397;48.194;11.632;2022-11-11T00:59:24;5.32;;;3.42;;
61531;SDS011;47397;48.194;11.632;2022-11-11T01:00:24;3.70;;;3.13;;
61531;SDS011;47397;48.194;11.632;2022-11-11T01:01:25;3.92;;;3.17;;
61531;SDS011;47397;48.194;11.632;2022-11-11T01:02:25;5.55;;;3.25;;
61531;SDS011;47397;48.194;11.632;2022-11-11T01:03:27;5.32;;;3.05;;
61531;SDS011;47397;48.194;11.632;2022-11-11T01:04:27;4.82;;;3.22;;
61531;SDS011;47397;48.194;11.632;2022-11-11T01:05:28;4.47;;;3.33;;
61531;SDS011;47397;48.194;11.632;2022-11-11T01:06:28;3.90;;;3.50;;
61531;SDS011;47397;48.194;11.632;2022-11-11T01:07:29;4.35;;;3.70;;
61531;SDS011;47397;48.194;11.632;2022-11-11T01:08:29;4.78;;;3.50;;
61531;SDS011;47397;48.194;11.632;2022-11-11T01:09:30;4.93;;;3.53;;
61531;SDS011;47397;48.194;11.632;2022-11-11T01:10:30;5.35;;;3.75;;
61531;SDS011;47397;48.194;11.632;2022-11-11T01:11:31;4.45;;;3.70;;
61531;SDS011;47397;48.194;11.632;2022-11-11T01:12:32;4.95;;;3.92;;
61531;SDS011;47397;48.194;11.632;2022-11-11T01:13:33;4.00;;;3.50;;
61531;SDS011;47397;48.194;11.632;2022-11-11T01:14:33;5.10;;;3.70;;
61531;SDS011;47397;48.194;11.632;2022-11-11T01:15:33;5.07;;;3.30;;
61531;SDS011;47397;48.194;11.632;2022-11-11T01:16:34;4.22;;;3.35;;
61531;SDS011;47397;48.194;11.632;2022-11-11T01:17:34;4.22;;;3.40;;
61531;SDS011;47397;48.194;11.632;2022-11-11T01:18:36;4.68;;;3.42;;
61531;SDS011;47397;48.194;11.632;2022-11-11T01:19:36;4.50;;;3.70;;
61531;SDS011;47397;48.194;11.632;2022-11-11T01:20:37;4.40;;;3.40;;
61531;SDS011;47397;48.194;11.632;2022-11-11T01:21:38;4.22;;;3.13;;
61531;SDS011;47397;48.194;11.632;2022-11-11T01:22:38;4.80;;;3.35;;
61531;SDS011;47397;48.194;11.632;2022-11-11T01:23:39;4.47;;;3.10;;
61531;SDS011;47397;48.194;11.632;2022-11-11T01:24:40;4.13;;;3.58;;
61531;SDS011;47397;48.194;11.632;2022-11-11T01:25:41;4.65;;;3.08;;
61531;SDS011;47397;48.194;11.632;2022-11-11T01:26:42;4.30;;;3.50;;
61531;SDS011;47397;48.194;11.632;2022-11-11T01:27:42;3.97;;;3.20;;
61531;SDS011;47397;48.194;11.632;2022-11-11T01:28:43;3.92;;;3.40;;
61531;SDS011;47397;48.194;11.632;2022-11-11T01:29:43;3.40;;;2.97;;
61531;SDS011;47397;48.194;11.632;2022-11-11T01:30:44;4.38;;;3.15;;
61531;SDS011;47397;48.194;11.632;2022-11-11T01:31:44;4.25;;;3.47;;
61531;SDS011;47397;48.194;11.632;2022-11-11T01:32:45;4.30;;;3.50;;
61531;SDS011;47397;48.194;11.632;2022-11-11T01:33:46;3.63;;;3.10;;
61531;SDS011;47397;48.194;11.632;2022-11-11T01:34:47;6.57;;;3.30;;
61531;SDS011;47397;48.194;11.632;2022-11-11T01:35:47;4.40;;;3.05;;
61531;SDS011;47397;48.194;11.632;2022-11-11T01:36:48;4.60;;;3.20;;
61531;SDS011;47397;48.194;11.632;2022-11-11T01:37:48;4.93;;;3.40;;
61531;SDS011;47397;48.194;11.632;2022-11-11T01:38:49;5.25;;;3.03;;
61531;SDS011;47397;48.194;11.632;2022-11-11T01:39:51;4.25;;;3.63;;
61531;SDS011;47397;48.194;11.632;2022-11-11T01:40:51;4.15;;;3.10;;
61531;SDS011;47397;48.194;11.632;2022-11-11T01:41:52;5.30;;;3.50;;
61531;SDS011;47397;48.194;11.632;2022-11-11T01:42:53;4.18;;;3.10;;
61531;SDS011;47397;48.194;11.632;2022-11-11T01:44:18;4.03;;;2.97;;
61531;SDS011;47397;48.194;11.632;2022-11-11T01:45:44;3.58;;;3.13;;
61531;SDS011;47397;48.194;11.632;2022-11-11T01:46:47;5.20;;;3.03;;
61531;SDS011;47397;48.194;11.632;2022-11-11T01:47:51;4.07;;;3.30;;
61531;SDS011;47397;48.194;11.632;2022-11-11T01:48:54;3.83;;;2.75;;
61531;SDS011;47397;48.194;11.632;2022-11-11T01:49:58;4.22;;;2.70;;
61531;SDS011;47397;48.194;11.632;2022-11-11T01:51:02;4.38;;;2.95;;
61531;SDS011;47397;48.194;11.632;2022-11-11T01:52:05;3.25;;;2.58;;
61531;SDS011;47397;48.194;11.632;2022-11-11T01:53:08;3.45;;;2.83;;
61531;SDS011;47397;48.194;11.632;2022-11-11T01:54:09;3.63;;;2.92;;
61531;SDS011;47397;48.194;11.632;2022-11-11T01:55:13;4.00;;;3.47;;
61531;SDS011;47397;48.194;11.632;2022-11-11T01:56:16;4.13;;;2.80;;
61531;SDS011;47397;48.194;11.632;2022-11-11T01:57:18;3.30;;;2.83;;
61531;SDS011;47397;48.194;11.632;2022-11-11T01:58:24;3.88;;;2.70;;
61531;SDS011;47397;48.194;11.632;2022-11-11T01:59:24;4.68;;;3.10;;
61531;SDS011;47397;48.194;11.632;2022-11-11T02:00:26;4.75;;;3.20;;
61531;SDS011;47397;48.194;11.632;2022-11-11T02:01:26;4.43;;;2.80;;
61531;SDS011;47397;48.194;11.632;2022-11-11T02:02:28;3.28;;;2.65;;
61531;SDS011;47397;48.194;11.632;2022-11-11T02:03:34;4.60;;;2.95;;
61531;SDS011;47397;48.194;11.632;2022-11-11T02:04:39;3.75;;;2.55;;
61531;SDS011;47397;48.194;11.632;2022-11-11T02:05:39;3.90;;;2.90;;
61531;SDS011;47397;48.194;11.632;2022-11-11T02:06:40;4.15;;;2.90;;
61531;SDS011;47397;48.194;11.632;2022-11-11T02:07:40;3.40;;;2.70;;
61531;SDS011;47397;48.194;11.632;2022-11-11T02:08:41;3.20;;;2.53;;
61531;SDS011;47397;48.194;11.632;2022-11-11T02:09:44;3.20;;;2.30;;
61531;SDS011;47397;48.194;11.632;2022-11-11T02:10:46;4.00;;;2.75;;
61531;SDS011;47397;48.194;11.632;2022-11-11T02:11:47;4.07;;;2.70;;
61531;SDS011;47397;48.194;11.632;2022-11-11T02:12:49;3.42;;;2.80;;
61531;SDS011;47397;48.194;11.632;2022-11-11T02:13:50;3.97;;;2.90;;
61531;SDS011;47397;48.194;11.632;2022-11-11T02:14:51;3.15;;;2.42;;
61531;SDS011;47397;48.194;11.632;2022-11-11T02:15:54;3.40;;;2.40;;
61531;SDS011;47397;48.194;11.632;2022-11-11T02:16:55;3.67;;;2.60;;
61531;SDS011;47397;48.194;11.632;2022-11-11T02:17:55;3.47;;;2.63;;
61531;SDS011;47397;48.194;11.632;2022-11-11T02:18:55;4.65;;;2.58;;
61531;SDS011;47397;48.194;11.632;2022-11-11T02:19:58;2.83;;;2.38;;
61531;SDS011;47397;48.194;11.632;2022-11-11T02:21:00;3.47;;;2.20;;
61531;SDS011;47397;48.194;11.632;2022-11-11T02:22:00;3.13;;;2.58;;
61531;SDS011;47397;48.194;11.632;2022-11-11T02:23:02;3.35;;;2.90;;
61531;SDS011;47397;48.194;11.632;2022-11-11T02:24:08;3.22;;;2.47;;
61531;SDS011;47397;48.194;11.632;2022-11-11T02:25:12;3.97;;;2.08;;
61531;SDS011;47397;48.194;11.632;2022-11-11T02:26:16;3.63;;;2.47;;
61531;SDS011;47397;48.194;11.632;2022-11-11T02:27:17;4.22;;;3.03;;
61531;SDS011;47397;48.194;11.632;2022-11-11T02:28:19;3.10;;;2.60;;
61531;SDS011;47397;48.194;11.632;2022-11-11T02:29:21;2.97;;;2.30;;
61531;SDS011;47397;48.194;11.632;2022-11-11T02:30:22;3.28;;;2.50;;
61531;SDS011;47397;48.194;11.632;2022-11-11T02:31:24;2.97;;;2.50;;
61531;SDS011;47397;48.194;11.632;2022-11-11T02:32:26;3.10;;;2.33;;
61531;SDS011;47397;48.194;11.632;2022-11-11T02:33:27;2.85;;;2.20;;
61531;SDS011;47397;48.194;11.632;2022-11-11T02:34:28;3.00;;;2.50;;
61531;SDS011;47397;48.194;11.632;2022-11-11T02:35:30;3.13;;;2.40;;
61531;SDS011;47397;48.194;11.632;2022-11-11T02:36:31;3.08;;;2.65;;
61531;SDS011;47397;48.194;11.632;2022-11-11T02:37:32;4.00;;;2.40;;
61531;SDS011;47397;48.194;11.632;2022-11-11T02:38:32;2.78;;;2.25;;
61531;SDS011;47397;48.194;11.632;2022-11-11T02:39:34;3.10;;;2.30;;
61531;SDS011;47397;48.194;11.632;2022-11-11T02:40:40;3.03;;;2.20;;
61531;SDS011;47397;48.194;11.632;2022-11-11T02:41:43;3.08;;;2.20;;
61531;SDS011;47397;48.194;11.632;2022-11-11T02:42:46;3.33;;;2.30;;
61531;SDS011;47397;48.194;11.632;2022-11-11T02:43:47;2.92;;;2.20;;
61531;SDS011;47397;48.194;11.632;2022-11-11T02:44:47;2.90;;;2.17;;
61531;SDS011;47397;48.194;11.632;2022-11-11T02:45:47;2.88;;;2.10;;
61531;SDS011;47397;48.194;11.632;2022-11-11T02:46:48;3.08;;;2.13;;
61531;SDS011;47397;48.194;11.632;2022-11-11T02:47:48;2.92;;;2.28;;
61531;SDS011;47397;48.194;11.632;2022-11-11T02:48:49;2.85;;;2.10;;
61531;SDS011;47397;48.194;11.632;2022-11-11T02:49:49;3.67;;;2.65;;
61531;SDS011;47397;48.194;11.632;2022-11-11T02:50:49;3.13;;;2.13;;
61531;SDS011;47397;48.194;11.632;2022-11-11T02:51:50;2.95;;;2.25;;
61531;SDS011;47397;48.194;11.632;2022-11-11T02:52:50;3.05;;;2.30;;
61531;SDS011;47397;48.194;11.632;2022-11-11T02:53:51;2.58;;;2.20;;
61531;SDS011;47397;48.194;11.632;2022-11-11T02:54:52;2.70;;;2.10;;
61531;SDS011;47397;48.194;11.632;2022-11-11T02:55:53;2.70;;;2.10;;
61531;SDS011;47397;48.194;11.632;2022-11-11T02:56:53;2.80;;;2.20;;
61531;SDS011;47397;48.194;11.632;2022-11-11T02:57:54;3.30;;;2.30;;
61531;SDS011;47397;48.194;11.632;2022-11-11T02:58:54;2.72;;;2.00;;
61531;SDS011;47397;48.194;11.632;2022-11-11T02:59:56;3.38;;;2.20;;
61531;SDS011;47397;48.194;11.632;2022-11-11T03:00:57;4.00;;;2.33;;
61531;SDS011;47397;48.194;11.632;2022-11-11T03:01:58;3.08;;;2.28;;
61531;SDS011;47397;48.194;11.632;2022-11-11T03:02:58;3.40;;;2.05;;
61531;SDS011;47397;48.194;11.632;2022-11-11T03:03:59;2.60;;;2.13;;
61531;SDS011;47397;48.194;11.632;2022-11-11T03:04:59;3.30;;;2.10;;
61531;SDS011;47397;48.194;11.632;2022-11-11T03:05:59;3.15;;;2.28;;
61531;SDS011;47397;48.194;11.632;2022-11-11T03:07:00;2.80;;;2.15;;
61531;SDS011;47397;48.194;11.632;2022-11-11T03:08:00;3.55;;;2.20;;
61531;SDS011;47397;48.194;11.632;2022-11-11T03:09:03;3.25;;;2.55;;
61531;SDS011;47397;48.194;11.632;2022-11-11T03:10:05;2.53;;;1.80;;
61531;SDS011;47397;48.194;11.632;2022-11-11T03:11:06;3.70;;;2.20;;
61531;SDS011;47397;48.194;11.632;2022-11-11T03:12:06;2.78;;;2.20;;
61531;SDS011;47397;48.194;11.632;2022-11-11T03:13:07;3.53;;;2.28;;
61531;SDS011;47397;48.194;11.632;2022-11-11T03:14:07;2.22;;;1.80;;
61531;SDS011;47397;48.194;11.632;2022-11-11T03:15:08;2.70;;;2.05;;
61531;SDS011;47397;48.194;11.632;2022-11-11T03:16:09;3.40;;;2.17;;
61531;SDS011;47397;48.194;11.632;2022-11-11T03:17:10;2.95;;;2.10;;
61531;SDS011;47397;48.194;11.632;2022-11-11T03:18:10;3.42;;;1.90;;
61531;SDS011;47397;48.194;11.632;2022-11-11T03:19:11;2.80;;;2.17;;
61531;SDS011;47397;48.194;11.632;2022-11-11T03:20:12;3.78;;;2.30;;
61531;SDS011;47397;48.194;11.632;2022-11-11T03:21:13;3.28;;;2.17;;
61531;SDS011;47397;48.194;11.632;2022-11-11T03:22:14;2.85;;;2.30;;
61531;SDS011;47397;48.194;11.632;2022-11-11T03:23:14;2.95;;;2.22;;
61531;SDS011;47397;48.194;11.632;2022-11-11T03:24:15;2.58;;;1.85;;
61531;SDS011;47397;48.194;11.632;2022-11-11T03:25:17;2.95;;;2.05;;
61531;SDS011;47397;48.194;11.632;2022-11-11T03:26:17;3.83;;;2.08;;
61531;SDS011;47397;48.194;11.632;2022-11-11T03:27:17;2.65;;;2.05;;
61531;SDS011;47397;48.194;11.632;2022-11-11T03:28:18;4.00;;;2.00;;
61531;SDS011;47397;48.194;11.632;2022-11-11T03:29:20;2.60;;;1.83;;
61531;SDS011;47397;48.194;11.632;2022-11-11T03:30:20;2.58;;;1.90;;
61531;SDS011;47397;48.194;11.632;2022-11-11T03:31:21;3.22;;;1.83;;
61531;SDS011;47397;48.194;11.632;2022-11-11T03:32:21;2.85;;;1.77;;
61531;SDS011;47397;48.194;11.632;2022-11-11T03:33:21;3.70;;;2.33;;
61531;SDS011;47397;48.194;11.632;2022-11-11T03:34:22;2.88;;;2.10;;
61531;SDS011;47397;48.194;11.632;2022-11-11T03:35:22;2.63;;;1.88;;
61531;SDS011;47397;48.194;11.632;2022-11-11T03:36:23;2.78;;;2.10;;
61531;SDS011;47397;48.194;11.632;2022-11-11T03:37:23;2.58;;;1.92;;
61531;SDS011;47397;48.194;11.632;2022-11-11T03:38:23;3.08;;;2.15;;
61531;SDS011;47397;48.194;11.632;2022-11-11T03:39:24;2.97;;;2.08;;
61531;SDS011;47397;48.194;11.632;2022-11-11T03:40:26;2.70;;;2.15;;
61531;SDS011;47397;48.194;11.632;2022-11-11T03:41:26;3.30;;;2.13;;
61531;SDS011;47397;48.194;11.632;2022-11-11T03:42:26;2.50;;;1.95;;
61531;SDS011;47397;48.194;11.632;2022-11-11T03:43:27;2.60;;;2.10;;
61531;SDS011;47397;48.194;11.632;2022-11-11T03:44:29;2.53;;;1.88;;
61531;SDS011;47397;48.194;11.632;2022-11-11T03:45:30;3.15;;;2.20;;
61531;SDS011;47397;48.194;11.632;2022-11-11T03:46:30;4.00;;;2.30;;
61531;SDS011;47397;48.194;11.632;2022-11-11T03:47:30;2.78;;;2.25;;
61531;SDS011;47397;48.194;11.632;2022-11-11T03:48:32;3.28;;;2.28;;
61531;SDS011;47397;48.194;11.632;2022-11-11T03:49:33;2.40;;;2.15;;
61531;SDS011;47397;48.194;11.632;2022-11-11T03:50:33;2.80;;;2.15;;
61531;SDS011;47397;48.194;11.632;2022-11-11T03:51:34;2.42;;;1.95;;
61531;SDS011;47397;48.194;11.632;2022-11-11T03:52:34;3.42;;;2.20;;
61531;SDS011;47397;48.194;11.632;2022-11-11T03:53:34;2.88;;;1.95;;
61531;SDS011;47397;48.194;11.632;2022-11-11T03:54:35;2.88;;;1.88;;
61531;SDS011;47397;48.194;11.632;2022-11-11T03:55:37;3.63;;;2.17;;
61531;SDS011;47397;48.194;11.632;2022-11-11T03:56:37;2.90;;;2.20;;
61531;SDS011;47397;48.194;11.632;2022-11-11T03:57:39;3.03;;;2.10;;
61531;SDS011;47397;48.194;11.632;2022-11-11T03:58:40;2.92;;;2.05;;
61531;SDS011;47397;48.194;11.632;2022-11-11T03:59:40;3.58;;;2.38;;
61531;SDS011;47397;48.194;11.632;2022-11-11T04:00:41;2.70;;;2.25;;
61531;SDS011;47397;48.194;11.632;2022-11-11T04:01:41;2.50;;;1.90;;
61531;SDS011;47397;48.194;11.632;2022-11-11T04:02:42;3.28;;;1.92;;
61531;SDS011;47397;48.194;11.632;2022-11-11T04:03:42;2.40;;;2.00;;
61531;SDS011;47397;48.194;11.632;2022-11-11T04:04:42;2.38;;;1.77;;
61531;SDS011;47397;48.194;11.632;2022-11-11T04:05:43;2.95;;;2.10;;
61531;SDS011;47397;48.194;11.632;2022-11-11T04:06:43;3.65;;;2.13;;
61531;SDS011;47397;48.194;11.632;2022-11-11T04:07:43;2.33;;;1.70;;
61531;SDS011;47397;48.194;11.632;2022-11-11T04:08:44;3.25;;;2.00;;
61531;SDS011;47397;48.194;11.632;2022-11-11T04:09:44;3.97;;;2.20;;
61531;SDS011;47397;48.194;11.632;2022-11-11T04:10:46;2.67;;;1.92;;
61531;SDS011;47397;48.194;11.632;2022-11-11T04:11:47;3.63;;;1.77;;
61531;SDS011;47397;48.194;11.632;2022-11-11T04:12:47;2.25;;;1.95;;
61531;SDS011;47397;48.194;11.632;2022-11-11T04:13:48;3.33;;;2.00;;
61531;SDS011;47397;48.194;11.632;2022-11-11T04:14:49;2.80;;;2.20;;
61531;SDS011;47397;48.194;11.632;2022-11-11T04:15:49;3.17;;;2.22;;
61531;SDS011;47397;48.194;11.632;2022-11-11T04:16:50;3.05;;;2.35;;
61531;SDS011;47397;48.194;11.632;2022-11-11T04:17:50;4.25;;;2.15;;
61531;SDS011;47397;48.194;11.632;2022-11-11T04:18:51;2.65;;;2.00;;
61531;SDS011;47397;48.194;11.632;2022-11-11T04:19:51;3.35;;;2.20;;
61531;SDS011;47397;48.194;11.632;2022-11-11T04:20:52;2.85;;;2.03;;
61531;SDS011;47397;48.194;11.632;2022-11-11T04:21:52;2.58;;;1.80;;
61531;SDS011;47397;48.194;11.632;2022-11-11T04:22:52;2.72;;;2.08;;
61531;SDS011;47397;48.194;11.632;2022-11-11T04:23:53;2.40;;;1.90;;
61531;SDS011;47397;48.194;11.632;2022-11-11T04:24:54;2.80;;;1.98;;
61531;SDS011;47397;48.194;11.632;2022-11-11T04:25:55;2.45;;;1.90;;
61531;SDS011;47397;48.194;11.632;2022-11-11T04:27:00;2.72;;;1.85;;
61531;SDS011;47397;48.194;11.632;2022-11-11T04:28:02;3.38;;;1.90;;
61531;SDS011;47397;48.194;11.632;2022-11-11T04:29:03;3.33;;;1.95;;
61531;SDS011;47397;48.194;11.632;2022-11-11T04:30:03;2.47;;;1.77;;
61531;SDS011;47397;48.194;11.632;2022-11-11T04:31:04;2.42;;;2.00;;
61531;SDS011;47397;48.194;11.632;2022-11-11T04:32:05;2.50;;;1.80;;
61531;SDS011;47397;48.194;11.632;2022-11-11T04:33:07;4.13;;;1.67;;
61531;SDS011;47397;48.194;11.632;2022-11-11T04:34:07;2.65;;;1.88;;
61531;SDS011;47397;48.194;11.632;2022-11-11T04:35:08;2.47;;;1.70;;
61531;SDS011;47397;48.194;11.632;2022-11-11T04:36:10;3.25;;;1.90;;
61531;SDS011;47397;48.194;11.632;2022-11-11T04:37:10;3.03;;;1.85;;
61531;SDS011;47397;48.194;11.632;2022-11-11T04:38:11;3.08;;;2.00;;
61531;SDS011;47397;48.194;11.632;2022-11-11T04:39:12;3.40;;;1.95;;
61531;SDS011;47397;48.194;11.632;2022-11-11T04:40:12;2.70;;;1.90;;
61531;SDS011;47397;48.194;11.632;2022-11-11T04:41:15;2.90;;;1.90;;
61531;SDS011;47397;48.194;11.632;2022-11-11T04:42:15;3.45;;;1.85;;
61531;SDS011;47397;48.194;11.632;2022-11-11T04:43:16;3.25;;;1.77;;
61531;SDS011;47397;48.194;11.632;2022-11-11T04:44:16;2.72;;;1.98;;
61531;SDS011;47397;48.194;11.632;2022-11-11T04:45:16;3.05;;;2.00;;
61531;SDS011;47397;48.194;11.632;2022-11-11T04:46:17;3.58;;;1.90;;
61531;SDS011;47397;48.194;11.632;2022-11-11T04:47:17;3.00;;;2.08;;
61531;SDS011;47397;48.194;11.632;2022-11-11T04:48:18;3.00;;;2.05;;
61531;SDS011;47397;48.194;11.632;2022-11-11T04:49:18;3.03;;;1.65;;
61531;SDS011;47397;48.194;11.632;2022-11-11T04:50:19;2.40;;;2.00;;
61531;SDS011;47397;48.194;11.632;2022-11-11T04:51:19;2.72;;;2.10;;
61531;SDS011;47397;48.194;11.632;2022-11-11T04:52:20;3.20;;;1.75;;
61531;SDS011;47397;48.194;11.632;2022-11-11T04:53:21;2.50;;;1.90;;
61531;SDS011;47397;48.194;11.632;2022-11-11T04:54:21;3.30;;;2.03;;
61531;SDS011;47397;48.194;11.632;2022-11-11T04:55:22;2.75;;;1.90;;
61531;SDS011;47397;48.194;11.632;2022-11-11T04:56:23;2.80;;;2.08;;
61531;SDS011;47397;48.194;11.632;2022-11-11T04:57:24;2.83;;;2.17;;
61531;SDS011;47397;48.194;11.632;2022-11-11T04:58:25;3.08;;;1.90;;
61531;SDS011;47397;48.194;11.632;2022-11-11T04:59:26;2.75;;;1.50;;
61531;SDS011;47397;48.194;11.632;2022-11-11T05:00:27;2.75;;;1.90;;
61531;SDS011;47397;48.194;11.632;2022-11-11T05:01:27;2.70;;;1.77;;
61531;SDS011;47397;48.194;11.632;2022-11-11T05:02:28;2.72;;;1.52;;
61531;SDS011;47397;48.194;11.632;2022-11-11T05:03:28;2.72;;;1.80;;
61531;SDS011;47397;48.194;11.632;2022-11-11T05:04:28;3.72;;;1.95;;
61531;SDS011;47397;48.194;11.632;2022-11-11T05:05:29;2.30;;;1.90;;
61531;SDS011;47397;48.194;11.632;2022-11-11T05:06:30;3.53;;;2.00;;
61531;SDS011;47397;48.194;11.632;2022-11-11T05:07:30;3.20;;;1.85;;
61531;SDS011;47397;48.194;11.632;2022-11-11T05:08:31;2.50;;;1.83;;
61531;SDS011;47397;48.194;11.632;2022-11-11T05:09:32;2.90;;;1.75;;
61531;SDS011;47397;48.194;11.632;2022-11-11T05:10:32;2.53;;;1.77;;
61531;SDS011;47397;48.194;11.632;2022-11-11T05:11:34;2.80;;;1.90;;
61531;SDS011;47397;48.194;11.632;2022-11-11T05:12:35;2.80;;;1.80;;
61531;SDS011;47397;48.194;11.632;2022-11-11T05:13:35;2.78;;;1.98;;
61531;SDS011;47397;48.194;11.632;2022-11-11T05:14:36;2.85;;;2.00;;
61531;SDS011;47397;48.194;11.632;2022-11-11T05:15:36;3.53;;;2.17;;
61531;SDS011;47397;48.194;11.632;2022-11-11T05:16:38;4.28;;;2.40;;
61531;SDS011;47397;48.194;11.632;2022-11-11T05:17:41;3.63;;;2.65;;
61531;SDS011;47397;48.194;11.632;2022-11-11T05:18:41;3.78;;;2.08;;
61531;SDS011;47397;48.194;11.632;2022-11-11T05:19:42;2.33;;;1.73;;
61531;SDS011;47397;48.194;11.632;2022-11-11T05:20:46;2.20;;;1.73;;
61531;SDS011;47397;48.194;11.632;2022-11-11T05:21:47;2.63;;;1.90;;
61531;SDS011;47397;48.194;11.632;2022-11-11T05:22:50;2.80;;;2.10;;
61531;SDS011;47397;48.194;11.632;2022-11-11T05:23:51;2.50;;;1.95;;
61531;SDS011;47397;48.194;11.632;2022-11-11T05:24:51;2.55;;;1.60;;
61531;SDS011;47397;48.194;11.632;2022-11-11T05:25:51;2.70;;;2.00;;
61531;SDS011;47397;48.194;11.632;2022-11-11T05:26:53;2.38;;;1.73;;
61531;SDS011;47397;48.194;11.632;2022-11-11T05:27:54;2.40;;;1.75;;
61531;SDS011;47397;48.194;11.632;2022-11-11T05:28:56;3.10;;;1.90;;
61531;SDS011;47397;48.194;11.632;2022-11-11T05:29:56;2.65;;;1.75;;
61531;SDS011;47397;48.194;11.632;2022-11-11T05:30:57;2.20;;;1.88;;
61531;SDS011;47397;48.194;11.632;2022-11-11T05:31:57;2.80;;;2.03;;
61531;SDS011;47397;48.194;11.632;2022-11-11T05:32:58;2.63;;;2.00;;
61531;SDS011;47397;48.194;11.632;2022-11-11T05:33:58;2.67;;;1.73;;
61531;SDS011;47397;48.194;11.632;2022-11-11T05:34:59;3.60;;;2.17;;
61531;SDS011;47397;48.194;11.632;2022-11-11T05:35:59;2.63;;;2.05;;
61531;SDS011;47397;48.194;11.632;2022-11-11T05:36:59;2.85;;;2.00;;
61531;SDS011;47397;48.194;11.632;2022-11-11T05:38:00;2.42;;;1.88;;
61531;SDS011;47397;48.194;11.632;2022-11-11T05:39:01;3.35;;;1.90;;
61531;SDS011;47397;48.194;11.632;2022-11-11T05:40:01;2.70;;;2.03;;
61531;SDS011;47397;48.194;11.632;2022-11-11T05:41:02;2.10;;;1.60;;
61531;SDS011;47397;48.194;11.632;2022-11-11T05:42:04;2.53;;;1.80;;
61531;SDS011;47397;48.194;11.632;2022-11-11T05:43:05;2.15;;;1.67;;
61531;SDS011;47397;48.194;11.632;2022-11-11T05:44:05;2.72;;;1.70;;
61531;SDS011;47397;48.194;11.632;2022-11-11T05:45:06;2.65;;;1.90;;
61531;SDS011;47397;48.194;11.632;2022-11-11T05:46:07;3.97;;;1.90;;
61531;SDS011;47397;48.194;11.632;2022-11-11T05:47:08;2.72;;;1.92;;
61531;SDS011;47397;48.194;11.632;2022-11-11T05:48:08;2.08;;;1.67;;
61531;SDS011;47397;48.194;11.632;2022-11-11T05:49:09;1.90;;;1.50;;
61531;SDS011;47397;48.194;11.632;2022-11-11T05:50:09;2.65;;;1.95;;
61531;SDS011;47397;48.194;11.632;2022-11-11T05:51:09;2.42;;;1.52;;
61531;SDS011;47397;48.194;11.632;2022-11-11T05:52:10;2.42;;;1.70;;
61531;SDS011;47397;48.194;11.632;2022-11-11T05:53:12;2.13;;;1.63;;
61531;SDS011;47397;48.194;11.632;2022-11-11T05:54:12;2.38;;;1.80;;
61531;SDS011;47397;48.194;11.632;2022-11-11T05:55:13;2.58;;;1.90;;
61531;SDS011;47397;48.194;11.632;2022-11-11T05:56:14;2.83;;;1.80;;
61531;SDS011;47397;48.194;11.632;2022-11-11T05:57:15;2.95;;;1.90;;
61531;SDS011;47397;48.194;11.632;2022-11-11T05:58:16;2.47;;;1.70;;
61531;SDS011;47397;48.194;11.632;2022-11-11T05:59:16;2.40;;;1.80;;
61531;SDS011;47397;48.194;11.632;2022-11-11T06:00:17;1.88;;;1.45;;
61531;SDS011;47397;48.194;11.632;2022-11-11T06:01:17;2.65;;;1.80;;
61531;SDS011;47397;48.194;11.632;2022-11-11T06:02:18;3.17;;;1.63;;